Time;durP1;ratioP1;P1;durP2;ratioP2;P2;SDS_P1;SDS_P2;PMS_P1;PMS_P2;Temp;Humidity;BMP_temperature;BMP_pressure;BME280_temperature;BME280_humidity;BME280_pressure;Samples;Min_cycle;Max_cycle;Signal;HPM_P1;HPM_P2
2022/12/11 00:02:03;;;;;;;72.63;32.22;;;;;;;2.09;76.89;101068.63;5018639;28;20118;-58
2022/12/11 00:04:29;;;;;;;79.07;33.65;;;;;;;2.11;76.45;101073.91;5016368;28;20025;-59
2022/12/11 00:06:55;;;;;;;84.40;35.30;;;;;;;2.13;76.30;101071.84;5026835;28;20120;-59
2022/12/11 00:09:20;;;;;;;75.93;33.28;;;;;;;2.10;76.73;101066.75;5032364;28;20163;-59
2022/12/11 00:11:46;;;;;;;85.88;35.58;;;;;;;2.11;76.44;101066.53;5025448;28;20160;-59
2022/12/11 00:14:13;;;;;;;84.30;33.78;;;;;;;2.13;76.91;101072.69;5027435;28;20025;-59
2022/12/11 00:16:38;;;;;;;79.57;33.75;;;;;;;2.16;76.17;101071.44;5045562;28;20029;-59
2022/12/11 00:19:03;;;;;;;75.13;33.80;;;;;;;2.15;76.02;101076.06;5049890;28;20027;-59
2022/12/11 00:21:29;;;;;;;81.13;35.10;;;;;;;2.15;76.54;101067.84;5038702;28;20030;-59
2022/12/11 00:23:54;;;;;;;80.85;33.58;;;;;;;2.16;76.65;101071.44;5048313;28;20024;-59
2022/12/11 00:26:20;;;;;;;71.22;32.33;;;;;;;2.14;76.17;101066.16;5050908;28;20056;-59
2022/12/11 00:28:45;;;;;;;79.15;33.78;;;;;;;2.18;76.06;101064.72;5033240;28;20057;-59
2022/12/11 00:31:15;;;;;;;77.85;33.33;;;;;;;2.17;76.40;101060.31;5022019;28;20393;-59
2022/12/11 00:33:41;;;;;;;76.50;31.67;;;;;;;2.18;76.75;101072.09;5011127;28;20058;-59
2022/12/11 00:36:12;;;;;;;76.22;33.17;;;;;;;2.19;76.03;101079.25;5037488;28;20732;-60
2022/12/11 00:38:37;;;;;;;74.20;31.73;;;;;;;2.20;75.90;101073.63;5031273;28;20120;-59
2022/12/11 00:41:03;;;;;;;73.75;32.65;;;;;;;2.19;76.30;101071.88;5040269;28;20183;-59
2022/12/11 00:43:28;;;;;;;72.78;33.30;;;;;;;2.22;75.78;101070.66;5049884;28;20039;-59
2022/12/11 00:45:53;;;;;;;78.30;33.95;;;;;;;2.21;76.52;101072.56;5029829;28;20064;-59
2022/12/11 00:48:18;;;;;;;75.15;32.60;;;;;;;2.19;76.23;101058.19;5023547;28;20033;-59
2022/12/11 00:50:44;;;;;;;75.40;33.42;;;;;;;2.22;76.75;101068.78;5034870;28;20035;-59
2022/12/11 00:53:09;;;;;;;74.00;33.30;;;;;;;2.24;76.24;101065.88;5047031;28;20376;-59
2022/12/11 00:55:39;;;;;;;74.50;33.15;;;;;;;2.25;76.22;101072.19;5049720;28;20020;-59
2022/12/11 00:58:05;;;;;;;73.50;33.45;;;;;;;2.25;76.04;101063.97;5048788;28;20056;-59
2022/12/11 01:00:31;;;;;;;72.82;31.92;;;;;;;2.21;76.32;101069.81;5047127;28;20048;-59
2022/12/11 01:02:56;;;;;;;75.07;34.53;;;;;;;2.23;76.61;101061.41;5028339;28;20461;-59
2022/12/11 01:05:22;;;;;;;68.07;32.10;;;;;;;2.22;76.35;101063.28;5022834;28;20049;-59
2022/12/11 01:07:47;;;;;;;69.88;32.40;;;;;;;2.22;76.42;101065.19;5029290;28;20033;-59
2022/12/11 01:10:22;;;;;;;70.55;32.55;;;;;;;2.24;76.60;101062.25;5029566;28;20107;-59
2022/12/11 01:12:49;;;;;;;72.53;33.80;;;;;;;2.26;76.26;101061.03;5029444;28;20443;-59
2022/12/11 01:15:14;;;;;;;65.35;30.63;;;;;;;2.28;76.25;101061.69;5043166;28;20723;-60
2022/12/11 01:17:39;;;;;;;65.25;31.63;;;;;;;2.30;76.51;101066.97;5041424;28;20032;-59
2022/12/11 01:20:05;;;;;;;63.70;31.83;;;;;;;2.28;76.43;101053.47;5040859;28;20040;-59
2022/12/11 01:22:30;;;;;;;67.03;32.28;;;;;;;2.30;76.43;101069.69;5036868;28;20025;-60
2022/12/11 01:24:56;;;;;;;63.25;30.23;;;;;;;2.31;76.13;101065.91;5029248;28;20032;-59
2022/12/11 01:27:21;;;;;;;62.28;30.35;;;;;;;2.32;76.39;101064.88;5048628;28;20100;-59
2022/12/11 01:29:46;;;;;;;65.63;32.30;;;;;;;2.31;76.41;101066.75;5043615;28;20025;-59
2022/12/11 01:32:12;;;;;;;56.17;28.67;;;;;;;2.36;76.24;101074.41;5028404;28;20152;-60
2022/12/11 01:34:37;;;;;;;60.58;29.27;;;;;;;2.32;75.92;101073.09;5035044;28;20059;-59
2022/12/11 01:37:03;;;;;;;62.20;30.15;;;;;;;2.31;75.83;101064.03;4983251;28;1058747;-60
2022/12/11 01:39:28;;;;;;;58.63;28.73;;;;;;;2.34;76.10;101063.63;5020564;28;20031;-59
2022/12/11 01:41:58;;;;;;;58.10;29.52;;;;;;;2.36;76.08;101067.06;5021479;28;20045;-59
2022/12/11 01:44:23;;;;;;;59.28;28.45;;;;;;;2.34;75.89;101062.78;5032204;28;20037;-59
2022/12/11 01:46:48;;;;;;;60.08;29.02;;;;;;;2.35;76.29;101056.25;5027983;28;20481;-59
2022/12/11 01:49:17;;;;;;;63.10;29.95;;;;;;;2.38;76.20;101064.09;5025593;28;20035;-59
2022/12/11 01:51:48;;;;;;;56.75;28.52;;;;;;;2.36;76.17;101055.25;5028227;28;20036;-59
2022/12/11 01:54:16;;;;;;;54.85;27.67;;;;;;;2.35;76.16;101059.84;5027379;28;20029;-58
2022/12/11 01:56:45;;;;;;;61.83;29.10;;;;;;;2.36;75.95;101058.81;5024930;28;20057;-57
2022/12/11 01:59:14;;;;;;;59.72;28.55;;;;;;;2.37;76.39;101052.31;5021500;28;20794;-58
2022/12/11 02:02:06;;;;;;;54.33;27.70;;;;;;;2.42;75.60;101055.28;5029896;28;20350;-58
2022/12/11 02:04:34;;;;;;;60.90;28.20;;;;;;;2.41;75.48;101045.38;5035881;28;20122;-58
2022/12/11 02:06:59;;;;;;;51.95;27.08;;;;;;;2.41;75.51;101052.75;5044630;28;20430;-58
2022/12/11 02:09:31;;;;;;;56.28;28.40;;;;;;;2.40;75.59;101051.06;5036613;28;20088;-58
2022/12/11 02:12:06;;;;;;;49.45;27.33;;;;;;;2.42;75.66;101054.44;5026939;28;20040;-58
2022/12/11 02:14:40;;;;;;;54.58;27.70;;;;;;;2.44;75.65;101052.38;5020480;28;20886;-58
2022/12/11 02:17:12;;;;;;;48.38;26.63;;;;;;;2.41;76.23;101055.50;5027744;28;20124;-58
2022/12/11 02:19:56;;;;;;;49.83;26.17;;;;;;;2.47;75.87;101046.47;5032611;28;20026;-58
2022/12/11 02:22:50;;;;;;;53.20;26.20;;;;;;;2.46;75.63;101050.28;5029407;28;20029;-58
2022/12/11 02:25:30;;;;;;;50.25;25.08;;;;;;;2.42;75.67;101049.81;5026032;28;20041;-58
2022/12/11 02:28:28;;;;;;;51.00;26.23;;;;;;;2.43;76.02;101050.66;5026410;28;20501;-58
2022/12/11 02:31:01;;;;;;;52.85;26.17;;;;;;;2.45;75.99;101046.69;5014107;28;20044;-58
2022/12/11 02:33:41;;;;;;;47.17;25.08;;;;;;;2.44;75.79;101045.00;5028703;28;20048;-58
2022/12/11 02:36:08;;;;;;;51.78;25.98;;;;;;;2.45;75.97;101043.94;5026869;28;20188;-59
2022/12/11 02:38:38;;;;;;;52.83;25.20;;;;;;;2.45;75.65;101043.09;5030915;28;20030;-58
2022/12/11 02:41:06;;;;;;;44.63;25.15;;;;;;;2.47;76.07;101046.47;5036477;28;20029;-59
2022/12/11 02:43:33;;;;;;;52.22;26.80;;;;;;;2.45;75.49;101048.59;5031176;28;20043;-58
2022/12/11 02:45:59;;;;;;;51.05;26.58;;;;;;;2.45;75.42;101048.59;5029954;28;20057;-58
2022/12/11 02:48:25;;;;;;;48.80;25.95;;;;;;;2.49;75.96;101049.91;5026625;28;20707;-58
2022/12/11 02:50:55;;;;;;;49.75;25.90;;;;;;;2.47;75.66;101050.06;5033898;28;20037;-58
2022/12/11 02:53:25;;;;;;;48.00;25.63;;;;;;;2.47;75.77;101041.84;5032221;28;20032;-58
2022/12/11 02:55:57;;;;;;;46.95;25.52;;;;;;;2.49;75.49;101051.78;5041076;28;20033;-59
2022/12/11 02:58:28;;;;;;;44.58;24.85;;;;;;;2.54;75.69;101052.03;5027267;28;20129;-58
2022/12/11 03:00:53;;;;;;;44.03;23.55;;;;;;;2.53;75.64;101048.47;5030990;28;20033;-58
2022/12/11 03:03:18;;;;;;;42.05;23.95;;;;;;;2.53;75.63;101048.47;5023123;28;20431;-59
2022/12/11 03:05:45;;;;;;;39.15;23.27;;;;;;;2.52;75.65;101049.50;5037367;28;20112;-59
2022/12/11 03:08:10;;;;;;;39.08;23.38;;;;;;;2.52;75.65;101038.56;5040891;28;20029;-59
2022/12/11 03:10:36;;;;;;;36.85;21.33;;;;;;;2.54;74.66;101035.59;5039416;28;20033;-59
2022/12/11 03:13:03;;;;;;;34.38;21.20;;;;;;;2.51;74.37;101025.88;5032555;28;20117;-59
2022/12/11 03:15:48;;;;;;;33.17;19.40;;;;;;;2.54;74.52;101027.38;5043244;28;20049;-59
2022/12/11 03:18:28;;;;;;;31.92;19.92;;;;;;;2.51;74.75;101020.38;5023353;28;20148;-59
2022/12/11 03:21:05;;;;;;;31.58;19.13;;;;;;;2.52;74.70;101024.84;5028203;28;20099;-58
2022/12/11 03:23:46;;;;;;;29.17;18.35;;;;;;;2.53;73.88;101020.22;5029083;28;20029;-58
2022/12/11 03:26:15;;;;;;;29.08;18.15;;;;;;;2.53;73.68;101029.28;5028343;28;20037;-58
2022/12/11 03:28:59;;;;;;;28.02;17.48;;;;;;;2.52;74.33;101019.38;5029438;28;20025;-58
2022/12/11 03:32:02;;;;;;;30.55;18.08;;;;;;;2.55;74.57;101026.31;5029491;28;20080;-58
2022/12/11 03:34:37;;;;;;;27.77;18.17;;;;;;;2.53;74.22;101023.78;5026559;28;20041;-58
2022/12/11 03:37:04;;;;;;;27.08;17.40;;;;;;;2.56;74.09;101028.06;5020919;28;20111;-59
2022/12/11 03:39:37;;;;;;;25.42;16.90;;;;;;;2.58;73.91;101020.47;5030449;28;20061;-59
2022/12/11 03:42:08;;;;;;;25.33;17.02;;;;;;;2.56;74.10;101019.81;5027041;28;20044;-58
2022/12/11 03:44:34;;;;;;;24.05;16.60;;;;;;;2.55;73.74;101013.47;5030183;28;20112;-58
2022/12/11 03:47:02;;;;;;;29.20;18.17;;;;;;;2.53;73.30;101010.09;5038142;28;20114;-58
2022/12/11 03:49:33;;;;;;;26.40;17.60;;;;;;;2.51;73.55;101014.91;5033503;28;20037;-58
2022/12/11 03:51:59;;;;;;;27.50;16.75;;;;;;;2.55;73.33;101016.22;5021746;28;20389;-58
2022/12/11 03:54:26;;;;;;;26.45;17.67;;;;;;;2.55;74.15;101016.22;5027544;28;20436;-59
2022/12/11 03:56:55;;;;;;;27.35;17.48;;;;;;;2.54;73.53;101008.19;5031128;28;20021;-59
2022/12/11 03:59:20;;;;;;;27.10;17.73;;;;;;;2.54;73.77;101000.81;5026723;28;20061;-58
2022/12/11 04:01:45;;;;;;;23.77;17.23;;;;;;;2.54;74.08;100998.09;5029258;28;20394;-59
2022/12/11 04:04:11;;;;;;;25.23;16.83;;;;;;;2.51;73.55;101000.38;5029376;28;20061;-59
2022/12/11 04:06:36;;;;;;;26.95;17.00;;;;;;;2.53;73.37;100995.56;5030484;28;20025;-58
2022/12/11 04:09:02;;;;;;;32.70;17.42;;;;;;;2.51;73.80;100998.47;5022817;28;20026;-58
2022/12/11 04:11:33;;;;;;;25.92;16.35;;;;;;;2.56;74.14;101000.66;5028800;28;20124;-58
2022/12/11 04:16:43;;;;;;;25.42;16.48;;;;;;;2.54;73.10;101010.94;5015300;28;20047;-58
2022/12/11 04:24:37;;;;;;;25.05;15.43;;;;;;;2.59;72.95;101003.81;5020803;28;20100;-58
2022/12/11 04:27:03;;;;;;;26.35;16.75;;;;;;;2.57;73.25;101008.66;5021643;28;20767;-58
2022/12/11 04:29:28;;;;;;;27.65;17.80;;;;;;;2.56;73.02;101001.50;5035478;28;20033;-58
2022/12/11 04:31:54;;;;;;;27.80;17.65;;;;;;;2.57;72.86;101003.19;5031695;28;20033;-58
2022/12/11 04:34:19;;;;;;;28.13;17.35;;;;;;;2.58;73.19;100998.53;5035448;28;20044;-59
2022/12/11 04:36:44;;;;;;;25.40;16.30;;;;;;;2.57;73.27;100992.22;5036550;28;20099;-59
2022/12/11 04:39:10;;;;;;;28.40;17.63;;;;;;;2.56;73.63;100993.28;5032313;28;20037;-59
2022/12/11 04:41:36;;;;;;;26.55;17.27;;;;;;;2.56;73.21;100997.91;5022468;28;20033;-59
2022/12/11 04:44:01;;;;;;;24.33;16.77;;;;;;;2.55;72.93;100996.19;5025601;28;20440;-59
2022/12/11 04:46:26;;;;;;;27.58;17.75;;;;;;;2.56;73.65;100984.22;5035833;28;20033;-59
2022/12/11 04:48:52;;;;;;;29.00;16.90;;;;;;;2.55;72.85;100990.72;5040100;28;20037;-58
2022/12/11 04:51:18;;;;;;;27.70;18.08;;;;;;;2.55;73.88;100987.97;5027887;28;20029;-59
2022/12/11 04:53:44;;;;;;;28.55;18.13;;;;;;;2.57;73.26;100992.22;5029810;28;20033;-59
2022/12/11 04:56:13;;;;;;;27.58;18.25;;;;;;;2.57;72.86;100994.13;5027837;28;20038;-59
2022/12/11 04:58:39;;;;;;;28.83;17.27;;;;;;;2.59;73.38;100994.75;5014892;28;20060;-59
2022/12/11 05:01:09;;;;;;;28.00;17.77;;;;;;;2.56;72.82;100984.22;5025145;28;20075;-59
2022/12/11 05:03:35;;;;;;;29.95;18.27;;;;;;;2.57;73.49;100983.16;5039952;28;20029;-58
2022/12/11 05:06:00;;;;;;;29.40;18.92;;;;;;;2.56;72.72;100974.09;5028437;28;20039;-59
2022/12/11 05:08:25;;;;;;;29.27;18.55;;;;;;;2.57;73.03;100975.78;5027530;28;20076;-59
2022/12/11 05:10:58;;;;;;;28.33;17.92;;;;;;;2.59;73.02;100978.31;5027236;28;20069;-59
2022/12/11 05:13:25;;;;;;;24.75;17.35;;;;;;;2.58;72.04;100971.13;5024832;28;20029;-59
2022/12/11 05:15:50;;;;;;;28.83;18.55;;;;;;;2.58;71.80;100988.41;5027408;28;20086;-58
2022/12/11 05:18:16;;;;;;;26.63;17.20;;;;;;;2.57;72.52;100984.00;5027426;28;20030;-58
2022/12/11 05:20:41;;;;;;;28.35;17.98;;;;;;;2.60;71.94;100974.53;5027647;28;20060;-58
2022/12/11 05:23:06;;;;;;;29.40;18.20;;;;;;;2.62;71.79;100973.28;5028601;28;20104;-59
2022/12/11 05:25:32;;;;;;;25.73;17.40;;;;;;;2.59;71.39;100968.19;5025928;28;20029;-58
2022/12/11 05:27:57;;;;;;;27.77;17.98;;;;;;;2.60;71.80;100974.53;5030383;28;20078;-58
2022/12/11 05:30:22;;;;;;;26.42;18.42;;;;;;;2.61;71.80;100963.38;5033341;28;20037;-58
2022/12/11 05:32:48;;;;;;;26.23;16.75;;;;;;;2.62;71.76;100965.06;5017686;28;20098;-58
2022/12/11 05:35:13;;;;;;;27.90;17.80;;;;;;;2.61;71.22;100957.91;5029168;28;20049;-58
2022/12/11 05:37:38;;;;;;;26.83;17.65;;;;;;;2.62;71.59;100967.81;5027148;28;20509;-58
2022/12/11 05:40:05;;;;;;;26.40;17.50;;;;;;;2.60;71.44;100963.59;5013603;28;20053;-58
2022/12/11 05:42:31;;;;;;;28.17;18.27;;;;;;;2.62;71.67;100966.97;5037818;28;20036;-58
2022/12/11 05:44:56;;;;;;;28.48;18.25;;;;;;;2.61;71.56;100965.28;5027629;28;20084;-58
2022/12/11 05:47:22;;;;;;;27.48;17.13;;;;;;;2.60;71.50;100961.69;5026766;28;20040;-58
2022/12/11 05:49:47;;;;;;;28.52;17.38;;;;;;;2.63;70.80;100969.53;5022602;28;20026;-58
2022/12/11 05:52:12;;;;;;;25.65;17.17;;;;;;;2.64;71.42;100962.97;5037245;28;20033;-59
2022/12/11 05:54:38;;;;;;;28.88;17.85;;;;;;;2.64;70.96;100971.19;5027503;28;20034;-59
2022/12/11 05:57:03;;;;;;;26.38;17.13;;;;;;;2.61;71.23;100971.59;5028518;28;20423;-59
2022/12/11 05:59:28;;;;;;;28.13;17.33;;;;;;;2.62;71.47;100970.53;5028600;28;20121;-59
2022/12/11 06:01:54;;;;;;;28.58;17.85;;;;;;;2.62;71.78;100978.75;5016910;28;20034;-58
2022/12/11 06:04:19;;;;;;;24.83;17.35;;;;;;;2.64;71.59;100976.69;5021899;28;20487;-58
2022/12/11 06:06:44;;;;;;;24.20;15.88;;;;;;;2.63;71.06;100983.22;5040725;28;20047;-59
2022/12/11 06:09:15;;;;;;;26.27;17.15;;;;;;;2.65;71.41;100977.53;5034374;28;20789;-59
2022/12/11 06:11:40;;;;;;;26.33;16.15;;;;;;;2.63;71.65;100975.00;5032615;28;20040;-59
2022/12/11 06:14:05;;;;;;;25.88;16.33;;;;;;;2.65;70.61;100975.63;5032818;28;20041;-58
2022/12/11 06:16:31;;;;;;;23.42;15.55;;;;;;;2.62;71.40;100978.75;5028122;28;20041;-59
2022/12/11 06:18:57;;;;;;;25.52;15.63;;;;;;;2.64;71.15;100973.94;5026009;28;20120;-59
2022/12/11 06:21:24;;;;;;;24.58;17.27;;;;;;;2.63;71.02;100972.25;5032665;28;20031;-58
2022/12/11 06:23:51;;;;;;;26.23;16.88;;;;;;;2.66;70.78;100977.31;5031627;28;20036;-58
2022/12/11 06:26:18;;;;;;;23.42;16.40;;;;;;;2.65;71.37;100970.16;5031675;28;20041;-58
2022/12/11 06:28:44;;;;;;;27.58;17.38;;;;;;;2.65;71.10;100967.41;5029244;28;20033;-58
2022/12/11 06:31:09;;;;;;;24.08;17.42;;;;;;;2.64;71.13;100964.88;5029875;28;20022;-58
2022/12/11 06:33:35;;;;;;;29.42;17.95;;;;;;;2.63;70.48;100964.03;5027051;28;20496;-58
2022/12/11 06:36:03;;;;;;;30.77;18.63;;;;;;;2.65;70.80;100972.88;5025843;28;20382;-58
2022/12/11 06:38:28;;;;;;;28.90;16.98;;;;;;;2.67;70.32;100967.19;5030716;28;20037;-59
2022/12/11 06:40:58;;;;;;;26.48;17.35;;;;;;;2.65;70.53;100975.63;5031151;28;20513;-59
2022/12/11 06:43:23;;;;;;;28.42;17.90;;;;;;;2.66;70.24;100966.34;5030672;28;20037;-58
2022/12/11 06:45:49;;;;;;;25.80;17.27;;;;;;;2.66;70.67;100968.25;5029489;28;20034;-59
2022/12/11 06:48:14;;;;;;;26.83;17.42;;;;;;;2.65;70.01;100966.56;5030678;28;20041;-59
2022/12/11 06:50:40;;;;;;;23.70;16.00;;;;;;;2.66;70.26;100960.03;5030567;28;20431;-59
2022/12/11 06:53:05;;;;;;;26.48;16.65;;;;;;;2.66;70.58;100960.88;5028666;28;20029;-59
2022/12/11 06:55:34;;;;;;;26.13;17.70;;;;;;;2.67;70.72;100959.84;5027198;28;20544;-59
2022/12/11 06:58:00;;;;;;;25.90;17.75;;;;;;;2.66;70.15;100958.13;5029840;28;20022;-59
2022/12/11 07:00:26;;;;;;;28.67;18.50;;;;;;;2.68;70.41;100953.31;5031374;28;20111;-58
2022/12/11 07:02:51;;;;;;;30.45;19.08;;;;;;;2.72;69.91;100952.94;5029204;28;20177;-59
2022/12/11 07:05:16;;;;;;;28.55;17.50;;;;;;;2.69;70.18;100965.97;5029339;28;20112;-58
2022/12/11 07:07:42;;;;;;;26.55;17.55;;;;;;;2.70;70.52;100962.16;5031126;28;20034;-59
2022/12/11 07:10:08;;;;;;;27.88;17.60;;;;;;;2.72;70.69;100969.38;5025992;28;20421;-58
2022/12/11 07:12:33;;;;;;;25.35;16.88;;;;;;;2.68;70.06;100971.66;5029168;28;20032;-59
2022/12/11 07:14:59;;;;;;;24.75;17.23;;;;;;;2.68;70.33;100975.25;5030008;28;20037;-59
2022/12/11 07:17:24;;;;;;;26.23;17.55;;;;;;;2.72;69.93;100977.59;5030600;28;20033;-59
2022/12/11 07:19:49;;;;;;;25.20;16.60;;;;;;;2.68;69.87;100979.88;5029141;28;20576;-59
2022/12/11 07:22:14;;;;;;;27.15;17.17;;;;;;;2.69;70.04;100979.66;5030980;28;20581;-59
2022/12/11 07:24:40;;;;;;;25.90;16.67;;;;;;;2.70;69.93;100981.34;5030039;28;20067;-59
2022/12/11 07:27:05;;;;;;;28.98;18.30;;;;;;;2.72;69.60;100988.56;5029405;28;20244;-58
2022/12/11 07:29:30;;;;;;;27.65;18.20;;;;;;;2.72;69.62;100994.88;5022411;28;20038;-58
2022/12/11 07:31:56;;;;;;;26.08;17.75;;;;;;;2.72;69.55;100991.28;5026828;28;20041;-59
2022/12/11 07:34:21;;;;;;;26.38;16.67;;;;;;;2.73;69.72;100993.81;5030802;28;20034;-59
2022/12/11 07:36:46;;;;;;;29.90;17.50;;;;;;;2.72;70.38;100989.41;5031318;28;20041;-59
2022/12/11 07:39:12;;;;;;;28.63;16.88;;;;;;;2.72;69.88;100985.81;5027200;28;20136;-59
2022/12/11 07:41:38;;;;;;;29.98;18.15;;;;;;;2.75;70.26;100988.13;5020058;28;20104;-58
2022/12/11 07:44:03;;;;;;;26.30;16.27;;;;;;;2.72;70.32;100983.91;5027050;28;20049;-59
2022/12/11 07:46:31;;;;;;;28.42;18.70;;;;;;;2.75;70.02;100988.13;5033820;28;20090;-58
2022/12/11 07:48:56;;;;;;;26.05;17.13;;;;;;;2.75;70.20;100979.91;5023702;28;20398;-59
2022/12/11 07:51:30;;;;;;;25.27;16.48;;;;;;;2.76;70.14;100982.47;5030314;28;20037;-58
2022/12/11 07:54:04;;;;;;;29.25;17.48;;;;;;;2.78;69.75;100991.34;5033569;28;20049;-59
2022/12/11 07:56:30;;;;;;;28.17;18.25;;;;;;;2.81;70.40;100988.19;5030679;28;20025;-58
2022/12/11 07:58:59;;;;;;;31.27;19.10;;;;;;;2.78;70.22;100987.75;5030059;28;20274;-59
2022/12/11 08:01:25;;;;;;;32.58;18.52;;;;;;;2.74;69.39;100980.97;5028152;28;20029;-59
2022/12/11 08:03:51;;;;;;;31.17;18.00;;;;;;;2.74;69.90;100981.81;5028959;28;20491;-59
2022/12/11 08:06:17;;;;;;;33.50;19.30;;;;;;;2.74;70.17;100983.72;5022027;28;20119;-60
2022/12/11 08:08:42;;;;;;;32.97;18.40;;;;;;;2.77;70.29;100986.06;5020924;28;20021;-58
2022/12/11 08:11:10;;;;;;;29.65;18.88;;;;;;;2.77;70.33;100995.13;5025071;28;20116;-60
2022/12/11 08:13:36;;;;;;;32.38;18.17;;;;;;;2.79;69.82;100986.69;5029820;28;20283;-60
2022/12/11 08:16:08;;;;;;;29.58;18.70;;;;;;;2.78;69.47;100985.00;5030607;28;20084;-60
2022/12/11 08:18:34;;;;;;;31.80;19.08;;;;;;;2.76;69.83;100992.59;5027126;28;20032;-59
2022/12/11 08:21:21;;;;;;;32.15;18.27;;;;;;;2.77;70.27;100986.06;5029172;28;20424;-60
2022/12/11 08:23:47;;;;;;;32.55;19.67;;;;;;;2.76;70.29;100987.97;5029347;28;20048;-59
2022/12/11 08:26:18;;;;;;;32.38;19.45;;;;;;;2.74;70.08;100986.44;5030439;28;20038;-59
2022/12/11 08:28:44;;;;;;;32.78;19.25;;;;;;;2.73;70.07;100985.59;5029725;28;20501;-59
2022/12/11 08:31:11;;;;;;;31.25;18.98;;;;;;;2.73;69.69;100990.25;5020505;28;20108;-59
2022/12/11 08:33:37;;;;;;;33.63;19.48;;;;;;;2.73;70.57;100995.72;5028752;28;20052;-59
2022/12/11 08:36:04;;;;;;;29.27;19.13;;;;;;;2.75;69.98;100996.34;5020965;28;20049;-59
2022/12/11 08:38:30;;;;;;;36.35;19.63;;;;;;;2.72;70.04;100992.13;5027289;28;20116;-60
2022/12/11 08:40:55;;;;;;;33.55;21.40;;;;;;;2.70;70.35;100992.31;5020654;28;20143;-60
2022/12/11 08:43:20;;;;;;;35.28;20.65;;;;;;;2.70;69.84;100991.47;5029156;28;20029;-60
2022/12/11 08:45:46;;;;;;;33.22;20.23;;;;;;;2.72;69.73;100986.66;5030524;28;20121;-60
2022/12/11 08:48:11;;;;;;;29.08;18.55;;;;;;;2.75;70.23;100989.00;5029610;28;20111;-60
2022/12/11 08:50:36;;;;;;;30.30;19.27;;;;;;;2.73;70.40;100990.25;5029667;28;20033;-60
2022/12/11 08:53:02;;;;;;;31.25;18.27;;;;;;;2.72;70.26;100975.69;5030188;28;20029;-60
2022/12/11 08:55:28;;;;;;;31.98;19.45;;;;;;;2.70;69.50;100977.78;5028202;28;20460;-61
2022/12/11 08:57:53;;;;;;;30.98;18.08;;;;;;;2.73;70.10;100976.53;5020778;28;20091;-61
2022/12/11 09:00:18;;;;;;;31.05;19.08;;;;;;;2.73;70.22;100985.59;5029471;28;20568;-60
2022/12/11 09:02:44;;;;;;;30.90;18.73;;;;;;;2.74;69.83;100975.50;5026275;28;20076;-61
2022/12/11 09:05:09;;;;;;;30.02;19.00;;;;;;;2.73;69.36;100979.28;5031981;28;20033;-61
2022/12/11 09:07:37;;;;;;;28.35;18.25;;;;;;;2.73;69.99;100969.16;5025810;28;20037;-62
2022/12/11 09:10:04;;;;;;;30.88;18.48;;;;;;;2.74;70.35;100981.81;5025810;28;20031;-62
2022/12/11 09:12:32;;;;;;;31.88;18.38;;;;;;;2.75;69.44;100982.66;5024711;28;20040;-61
2022/12/11 09:14:57;;;;;;;28.75;18.08;;;;;;;2.73;69.43;100974.63;5027252;28;20038;-58
2022/12/11 09:17:22;;;;;;;33.30;19.35;;;;;;;2.68;69.98;100977.97;5027754;28;20095;-61
2022/12/11 09:19:48;;;;;;;31.23;19.38;;;;;;;2.74;70.70;100975.50;5027329;28;20469;-59
2022/12/11 09:22:13;;;;;;;30.33;18.75;;;;;;;2.69;69.68;100968.72;5028464;28;20109;-59
2022/12/11 09:24:38;;;;;;;30.40;18.48;;;;;;;2.70;69.90;100989.56;5026248;28;20036;-58
2022/12/11 09:27:04;;;;;;;34.50;18.70;;;;;;;2.72;69.78;100974.84;5022544;28;20120;-59
2022/12/11 09:29:30;;;;;;;32.30;19.45;;;;;;;2.73;70.40;100973.78;5024257;28;20052;-59
2022/12/11 09:31:55;;;;;;;29.38;18.15;;;;;;;2.74;70.29;100983.72;5028905;28;20029;-60
2022/12/11 09:34:23;;;;;;;34.42;19.23;;;;;;;2.73;70.35;100982.88;5015809;28;20072;-59
2022/12/11 09:36:49;;;;;;;33.85;18.98;;;;;;;2.70;70.01;100977.78;5028028;28;20041;-59
2022/12/11 09:39:15;;;;;;;31.13;19.27;;;;;;;2.67;69.98;100973.56;5025600;28;20030;-59
2022/12/11 09:42:08;;;;;;;32.45;19.90;;;;;;;2.70;70.25;100970.41;5029865;28;20393;-60
2022/12/11 09:44:51;;;;;;;33.65;19.55;;;;;;;2.72;69.86;100967.47;5032179;28;20116;-59
2022/12/11 09:47:22;;;;;;;30.80;18.35;;;;;;;2.73;70.45;100969.16;5032837;28;20037;-59
2022/12/11 09:49:52;;;;;;;34.05;19.75;;;;;;;2.72;70.02;100966.63;5034059;28;20025;-59
2022/12/11 09:52:22;;;;;;;31.85;18.65;;;;;;;2.70;70.22;100975.03;5025411;28;20080;-60
2022/12/11 09:54:58;;;;;;;36.08;20.00;;;;;;;2.70;69.77;100973.13;5033803;28;20041;-59
2022/12/11 09:57:23;;;;;;;33.33;20.08;;;;;;;2.68;70.10;100969.75;5032016;28;20036;-59
2022/12/11 10:00:10;;;;;;;32.50;19.35;;;;;;;2.67;70.17;100959.84;5031415;28;20397;-59
2022/12/11 10:02:48;;;;;;;31.20;18.67;;;;;;;2.65;70.22;100956.44;5031323;28;20512;-60
2022/12/11 10:05:30;;;;;;;30.50;18.27;;;;;;;2.67;69.93;100951.63;5031354;28;20112;-59
2022/12/11 10:07:59;;;;;;;30.45;18.58;;;;;;;2.68;69.65;100961.53;5023228;28;20033;-59
2022/12/11 10:10:49;;;;;;;30.30;19.02;;;;;;;2.68;69.98;100964.28;5031387;28;20135;-59
2022/12/11 10:13:29;;;;;;;32.33;18.80;;;;;;;2.73;70.33;100957.34;5033256;28;20029;-59
2022/12/11 10:16:24;;;;;;;33.17;18.27;;;;;;;2.69;70.12;100960.47;5033261;28;20152;-59
2022/12/11 10:18:50;;;;;;;34.90;18.40;;;;;;;2.74;69.64;100959.03;4996280;28;20074;-59
2022/12/11 10:21:17;;;;;;;30.73;18.13;;;;;;;2.76;69.98;100967.94;5032655;28;20035;-56
2022/12/11 10:23:49;;;;;;;29.88;17.95;;;;;;;2.74;70.44;100959.88;5032839;28;20442;-57
2022/12/11 10:26:16;;;;;;;;;;;;;;;2.89;70.48;100966.13;5024112;28;20505;-57
2022/12/11 10:28:42;;;;;;;27.52;15.80;;;;;;;2.90;72.77;100964.22;5032759;28;19921;-58
2022/12/11 10:31:19;;;;;;;30.27;17.67;;;;;;;2.81;70.30;100958.03;5033147;28;20371;-58
2022/12/11 10:33:52;;;;;;;30.13;18.08;;;;;;;2.84;70.71;100963.13;5033297;28;20092;-58
2022/12/11 10:36:24;;;;;;;31.58;18.25;;;;;;;2.81;70.46;100959.94;5031723;28;20045;-58
2022/12/11 10:38:49;;;;;;;29.83;17.77;;;;;;;2.80;69.53;100963.75;5030026;28;20041;-59
2022/12/11 10:41:20;;;;;;;28.10;17.02;;;;;;;2.78;70.03;100949.38;5046104;28;20397;-59
2022/12/11 10:43:48;;;;;;;28.42;17.10;;;;;;;2.80;69.63;100950.03;5051901;28;20115;-59
2022/12/11 10:46:23;;;;;;;30.70;18.10;;;;;;;2.81;69.83;100954.47;5052860;28;20376;-58
2022/12/11 10:48:57;;;;;;;29.38;17.45;;;;;;;2.78;69.39;100949.38;5052021;28;20087;-58
2022/12/11 10:51:28;;;;;;;30.33;18.05;;;;;;;2.75;69.29;100944.28;5052614;28;20024;-59
2022/12/11 10:54:05;;;;;;;28.63;17.35;;;;;;;2.76;69.35;100940.50;5043144;28;20150;-58
2022/12/11 10:56:34;;;;;;;29.73;18.42;;;;;;;2.78;69.53;100927.44;5031109;28;20033;-59
2022/12/11 10:59:00;;;;;;;28.55;17.92;;;;;;;2.82;70.13;100934.22;5026711;28;20034;-59
2022/12/11 11:01:28;;;;;;;30.80;18.02;;;;;;;2.81;69.41;100936.13;5031709;28;20032;-58
2022/12/11 11:04:05;;;;;;;30.75;17.92;;;;;;;2.81;69.79;100940.75;5030599;28;20041;-59
2022/12/11 11:06:31;;;;;;;29.40;17.77;;;;;;;2.84;69.42;100938.47;5031481;28;20029;-58
2022/12/11 11:09:00;;;;;;;30.63;18.50;;;;;;;2.87;69.59;100927.09;5028811;28;21756;-58
2022/12/11 11:11:35;;;;;;;34.67;18.30;;;;;;;2.88;69.78;100933.44;5029494;28;20037;-59
2022/12/11 11:14:17;;;;;;;30.38;17.85;;;;;;;2.87;70.06;100931.72;5016719;28;20036;-59
2022/12/11 11:16:45;;;;;;;29.23;17.90;;;;;;;2.89;69.78;100932.38;5023492;28;20045;-59
2022/12/11 11:19:37;;;;;;;34.75;19.33;;;;;;;2.95;70.12;100928.84;5051807;28;20039;-59
2022/12/11 11:22:15;;;;;;;28.95;17.60;;;;;;;2.96;69.77;100930.53;5045861;28;20029;-59
2022/12/11 11:24:54;;;;;;;31.48;19.33;;;;;;;2.89;69.31;100925.00;5029992;28;20030;-59
2022/12/11 11:27:28;;;;;;;30.08;18.63;;;;;;;2.93;69.33;100928.19;5032661;28;20677;-59
2022/12/11 11:29:56;;;;;;;32.20;18.30;;;;;;;2.91;69.38;100930.28;5050615;28;20047;-59
2022/12/11 11:32:30;;;;;;;30.33;19.08;;;;;;;2.91;69.24;100928.41;5028815;28;20025;-59